Thatta, Pakistan
Current Conditions -  °F | °C
As of 5:25 PM on Tuesday 21 Oct 2014 (Local Time) from OPKC Reporting Station
Clear Clear  
Wind Chill: 34°   Ceiling: Unl
Heat Index: 34°   Visibility: 4mi
Dew Point:   Wind: 12mph
Humidity: 20%   Direction: 240°WSW
Pressure: 29.88"   Gusts: NA
Location:  24.75°N, 67.92°E
Report Text: OPKC 211225Z 24010KT 7000 NSC 34/08 Q1012 NOSIG
Loading
Personal Weather Stations






























Interactive Weather Map
Tropical Storm Tracking
New forecast layout! Learn more

10-Day Weather Forecast

Advertisements
Track Severe Weather on mobile